createdAt,value
2017-05-20T00:01:34.138Z,11.3
2017-05-20T00:11:44.520Z,11.2
2017-05-20T00:21:55.021Z,11.1
2017-05-20T00:32:05.519Z,11
2017-05-20T00:42:15.998Z,11.1
2017-05-20T00:52:26.455Z,10.9
2017-05-20T01:02:36.940Z,10.9
2017-05-20T01:12:47.479Z,10.8
2017-05-20T01:22:57.976Z,10.9
2017-05-20T01:33:08.521Z,10.7
2017-05-20T01:43:19.038Z,10.7
2017-05-20T01:53:29.603Z,10.6
2017-05-20T02:03:40.177Z,10.4
2017-05-20T02:13:50.869Z,10.3
2017-05-20T02:24:01.567Z,10.1
2017-05-20T02:34:12.274Z,10
2017-05-20T02:44:23.150Z,9.9
2017-05-20T02:54:33.838Z,9.7
2017-05-20T03:04:44.654Z,9.6
2017-05-20T03:14:55.552Z,9.5
2017-05-20T03:25:06.465Z,9.5
2017-05-20T03:35:17.297Z,9.4
2017-05-20T03:45:28.135Z,9.3
2017-05-20T03:55:38.937Z,9.3
2017-05-20T04:05:49.686Z,9.3
2017-05-20T04:16:00.359Z,9.4
2017-05-20T04:26:10.872Z,9.5
2017-05-20T04:36:21.354Z,9.5
2017-05-20T04:46:31.747Z,9.6
2017-05-20T04:56:42.066Z,9.5
2017-05-20T05:06:52.257Z,9.8
2017-05-20T05:17:02.286Z,9.9
2017-05-20T05:27:12.169Z,10
2017-05-20T05:37:21.993Z,10.4
2017-05-20T05:47:31.789Z,10.4
2017-05-20T05:57:41.472Z,10.9
2017-05-20T06:07:50.976Z,10.8
2017-05-20T06:18:00.351Z,10.9
2017-05-20T06:28:09.651Z,11.3
2017-05-20T06:38:18.883Z,11.6
2017-05-20T06:48:27.963Z,12
2017-05-20T06:58:36.961Z,12
2017-05-20T07:08:45.946Z,12.2
2017-05-20T07:18:54.801Z,12.7
2017-05-20T07:29:03.545Z,12.9
2017-05-20T07:39:12.230Z,12.4
2017-05-20T07:49:21.052Z,12.6
2017-05-20T07:59:29.784Z,13.5
2017-05-20T08:09:38.221Z,13.7
2017-05-20T08:19:46.622Z,13.3
2017-05-20T08:29:55.097Z,13.7
2017-05-20T08:40:03.523Z,14.4
2017-05-20T08:50:11.643Z,15
2017-05-20T09:00:19.685Z,14.2
2017-05-20T09:10:27.774Z,15
2017-05-20T09:20:35.841Z,15.4
2017-05-20T09:30:43.890Z,15.4
2017-05-20T09:40:51.982Z,14.4
2017-05-20T09:51:00.476Z,14.4
2017-05-20T10:01:09.247Z,14.4
2017-05-20T10:11:17.995Z,15.1
2017-05-20T10:21:26.617Z,14.7
2017-05-20T10:31:35.278Z,14.7
2017-05-20T10:41:43.927Z,16.1
2017-05-20T10:51:52.399Z,15.9
2017-05-20T11:02:00.683Z,16
2017-05-20T11:12:08.870Z,15.8
2017-05-20T11:22:17.157Z,15.6
2017-05-20T11:32:25.659Z,15.7
2017-05-20T11:42:34.417Z,15.5
2017-05-20T11:52:43.324Z,15.5
2017-05-20T12:02:52.186Z,15.8
2017-05-20T12:13:00.846Z,16.2
2017-05-20T12:23:09.343Z,16.2
2017-05-20T12:33:17.735Z,17.1
2017-05-20T12:43:25.929Z,17.1
2017-05-20T12:53:33.573Z,16.7
2017-05-20T13:03:41.515Z,16.8
2017-05-20T13:13:49.474Z,17.2
2017-05-20T13:23:57.676Z,16.8
2017-05-20T13:34:05.803Z,16.7
2017-05-20T13:44:14.089Z,16.9
2017-05-20T13:54:22.372Z,17.1
2017-05-20T14:04:30.571Z,17.4
2017-05-20T14:14:38.664Z,16.4
2017-05-20T14:24:47.100Z,17.4
2017-05-20T14:34:55.277Z,17.7
2017-05-20T14:45:03.116Z,17.1
2017-05-20T14:55:11.255Z,16.7
2017-05-20T15:05:19.468Z,17.3
2017-05-20T15:15:27.568Z,17.9
2017-05-20T15:25:35.762Z,17.2
2017-05-20T15:35:44.036Z,18
2017-05-20T15:45:52.085Z,17.4
2017-05-20T15:56:00.165Z,17.1
2017-05-20T16:06:08.575Z,17.4
2017-05-20T16:16:17.096Z,16.8
2017-05-20T16:26:25.838Z,17.5
2017-05-20T16:36:34.083Z,17.2
2017-05-20T16:46:42.124Z,17.4
2017-05-20T16:56:50.318Z,17.1
2017-05-20T17:06:58.588Z,17
2017-05-20T17:17:07.132Z,16.5
2017-05-20T17:27:16.117Z,16.3
2017-05-20T17:37:25.106Z,16.6
2017-05-20T17:47:33.894Z,17.2
2017-05-20T17:57:42.405Z,17
2017-05-20T18:07:51.012Z,17.1
2017-05-20T18:17:59.713Z,16.7
2017-05-20T18:28:08.521Z,16.6
2017-05-20T18:38:17.379Z,16.4
2017-05-20T18:48:26.396Z,16.3
2017-05-20T18:58:35.458Z,16
2017-05-20T19:08:44.699Z,15.8
2017-05-20T19:18:54.140Z,15.4
2017-05-20T19:29:03.683Z,15.3
2017-05-20T19:39:13.335Z,15.4
2017-05-20T19:49:23.083Z,15.1
2017-05-20T19:59:32.902Z,15
2017-05-20T20:09:42.811Z,14
2017-05-20T20:19:52.813Z,13.3
2017-05-20T20:30:02.820Z,13.4
2017-05-20T20:40:12.903Z,14.3
2017-05-20T20:50:22.978Z,14.3
2017-05-20T21:00:33.059Z,14.1
2017-05-20T21:10:43.174Z,13.8
2017-05-20T21:20:53.311Z,13.7
2017-05-20T21:31:03.476Z,13.9
2017-05-20T21:41:13.649Z,14.3
2017-05-20T21:51:23.790Z,13.6
2017-05-20T22:01:33.966Z,13
2017-05-20T22:11:44.184Z,13.1
2017-05-20T22:21:54.330Z,13.1
2017-05-20T22:32:04.574Z,13.1
2017-05-20T22:42:14.843Z,12.7
2017-05-20T22:52:25.155Z,13.1
2017-05-20T23:02:35.388Z,13
2017-05-20T23:12:45.645Z,12.8
2017-05-20T23:22:55.935Z,12.4
2017-05-20T23:33:06.260Z,12.1
2017-05-20T23:43:16.573Z,12.1
2017-05-20T23:53:26.984Z,11.8
